sensor_id;sensor_type;location;lat;lon;timestamp;pressure;altitude;pressure_sealevel;temperature;humidity
13604;BME280;24578;48.264;11.436;2023-02-12T00:02:28;97994.78;;;3.00;100.00
13604;BME280;24578;48.264;11.436;2023-02-12T00:05:29;97996.47;;;3.01;100.00
13604;BME280;24578;48.264;11.436;2023-02-12T00:08:30;98004.13;;;3.01;100.00
13604;BME280;24578;48.264;11.436;2023-02-12T00:11:31;97997.31;;;3.00;100.00
13604;BME280;24578;48.264;11.436;2023-02-12T00:14:31;98000.78;;;2.96;100.00
13604;BME280;24578;48.264;11.436;2023-02-12T00:17:32;98008.50;;;2.95;100.00
13604;BME280;24578;48.264;11.436;2023-02-12T00:20:33;97999.09;;;2.95;100.00
13604;BME280;24578;48.264;11.436;2023-02-12T00:23:35;98006.88;;;2.87;100.00
13604;BME280;24578;48.264;11.436;2023-02-12T00:26:35;98000.84;;;2.90;100.00
13604;BME280;24578;48.264;11.436;2023-02-12T00:29:37;98003.50;;;2.84;100.00
13604;BME280;24578;48.264;11.436;2023-02-12T00:32:38;98004.38;;;2.81;100.00
13604;BME280;24578;48.264;11.436;2023-02-12T00:35:40;98007.78;;;2.82;100.00
13604;BME280;24578;48.264;11.436;2023-02-12T00:38:40;98000.09;;;2.83;100.00
13604;BME280;24578;48.264;11.436;2023-02-12T00:41:41;98000.91;;;2.87;100.00
13604;BME280;24578;48.264;11.436;2023-02-12T00:44:42;98005.22;;;2.85;100.00
13604;BME280;24578;48.264;11.436;2023-02-12T00:47:42;98003.47;;;2.85;100.00
13604;BME280;24578;48.264;11.436;2023-02-12T00:50:44;98009.34;;;2.92;100.00
13604;BME280;24578;48.264;11.436;2023-02-12T00:53:45;97995.81;;;2.87;100.00
13604;BME280;24578;48.264;11.436;2023-02-12T00:56:45;98002.72;;;2.80;100.00
13604;BME280;24578;48.264;11.436;2023-02-12T00:59:46;98010.38;;;2.80;100.00
13604;BME280;24578;48.264;11.436;2023-02-12T01:02:47;98003.41;;;2.92;100.00
13604;BME280;24578;48.264;11.436;2023-02-12T01:05:47;97990.59;;;2.95;100.00
13604;BME280;24578;48.264;11.436;2023-02-12T01:08:51;98002.66;;;2.85;100.00
13604;BME280;24578;48.264;11.436;2023-02-12T01:11:52;98006.91;;;2.84;100.00
13604;BME280;24578;48.264;11.436;2023-02-12T01:14:52;98001.72;;;2.91;100.00
13604;BME280;24578;48.264;11.436;2023-02-12T01:17:53;98000.00;;;2.93;100.00
13604;BME280;24578;48.264;11.436;2023-02-12T01:20:53;97994.09;;;2.86;100.00
13604;BME280;24578;48.264;11.436;2023-02-12T01:23:54;98009.47;;;2.84;100.00
13604;BME280;24578;48.264;11.436;2023-02-12T01:26:54;98017.97;;;2.86;100.00
13604;BME280;24578;48.264;11.436;2023-02-12T01:29:55;98020.41;;;2.96;100.00
13604;BME280;24578;48.264;11.436;2023-02-12T01:32:56;98017.91;;;2.93;100.00
13604;BME280;24578;48.264;11.436;2023-02-12T01:35:56;98019.59;;;2.92;100.00
13604;BME280;24578;48.264;11.436;2023-02-12T01:38:57;98018.72;;;2.93;100.00
13604;BME280;24578;48.264;11.436;2023-02-12T01:41:59;98009.38;;;2.89;100.00
13604;BME280;24578;48.264;11.436;2023-02-12T01:48:14;98003.50;;;2.84;100.00
13604;BME280;24578;48.264;11.436;2023-02-12T01:51:19;98017.22;;;2.78;100.00
13604;BME280;24578;48.264;11.436;2023-02-12T01:54:22;98010.50;;;2.69;100.00
13604;BME280;24578;48.264;11.436;2023-02-12T01:57:28;98012.19;;;2.72;100.00
13604;BME280;24578;48.264;11.436;2023-02-12T02:00:30;97995.25;;;2.62;100.00
13604;BME280;24578;48.264;11.436;2023-02-12T02:03:36;98006.28;;;2.65;100.00
13604;BME280;24578;48.264;11.436;2023-02-12T02:06:46;98006.25;;;2.68;100.00
13604;BME280;24578;48.264;11.436;2023-02-12T02:09:49;98004.53;;;2.70;100.00
13604;BME280;24578;48.264;11.436;2023-02-12T02:12:49;98008.78;;;2.70;100.00
13604;BME280;24578;48.264;11.436;2023-02-12T02:16:24;97992.69;;;2.65;100.00
13604;BME280;24578;48.264;11.436;2023-02-12T02:22:34;97996.91;;;2.66;100.00
13604;BME280;24578;48.264;11.436;2023-02-12T02:25:46;97991.00;;;2.61;100.00
13604;BME280;24578;48.264;11.436;2023-02-12T02:29:09;97991.13;;;2.50;100.00
13604;BME280;24578;48.264;11.436;2023-02-12T02:32:23;97997.91;;;2.52;100.00
13604;BME280;24578;48.264;11.436;2023-02-12T02:35:40;97989.28;;;2.61;100.00
13604;BME280;24578;48.264;11.436;2023-02-12T02:41:56;97984.22;;;2.59;100.00
13604;BME280;24578;48.264;11.436;2023-02-12T02:45:42;97973.19;;;2.54;100.00
13604;BME280;24578;48.264;11.436;2023-02-12T02:48:49;97979.16;;;2.55;100.00
13604;BME280;24578;48.264;11.436;2023-02-12T02:52:05;97977.38;;;2.60;100.00
13604;BME280;24578;48.264;11.436;2023-02-12T02:55:11;97987.56;;;2.63;100.00
13604;BME280;24578;48.264;11.436;2023-02-12T02:58:29;97992.69;;;2.65;100.00
13604;BME280;24578;48.264;11.436;2023-02-12T03:01:37;97991.69;;;2.75;100.00
13604;BME280;24578;48.264;11.436;2023-02-12T03:04:44;97999.25;;;2.81;100.00
13604;BME280;24578;48.264;11.436;2023-02-12T03:07:51;97989.06;;;2.80;100.00
13604;BME280;24578;48.264;11.436;2023-02-12T03:11:04;97989.97;;;2.76;100.00
13604;BME280;24578;48.264;11.436;2023-02-12T03:14:15;97995.13;;;2.72;100.00
13604;BME280;24578;48.264;11.436;2023-02-12T03:17:28;97995.06;;;2.76;100.00
13604;BME280;24578;48.264;11.436;2023-02-12T03:20:37;97997.63;;;2.76;100.00
13604;BME280;24578;48.264;11.436;2023-02-12T03:23:46;98002.72;;;2.79;100.00
13604;BME280;24578;48.264;11.436;2023-02-12T03:27:16;98009.53;;;2.80;100.00
13604;BME280;24578;48.264;11.436;2023-02-12T03:30:19;98007.75;;;2.85;100.00
13604;BME280;24578;48.264;11.436;2023-02-12T03:37:39;98024.75;;;2.89;100.00
13604;BME280;24578;48.264;11.436;2023-02-12T03:40:27;98021.44;;;2.81;100.00
13604;BME280;24578;48.264;11.436;2023-02-12T03:43:53;98015.53;;;2.76;100.00
13604;BME280;24578;48.264;11.436;2023-02-12T03:47:09;98001.19;;;2.65;100.00
13604;BME280;24578;48.264;11.436;2023-02-12T03:53:19;98012.25;;;2.66;100.00
13604;BME280;24578;48.264;11.436;2023-02-12T03:56:54;98012.25;;;2.66;100.00
13604;BME280;24578;48.264;11.436;2023-02-12T03:59:57;98007.13;;;2.67;100.00
13604;BME280;24578;48.264;11.436;2023-02-12T04:02:58;98008.84;;;2.65;100.00
13604;BME280;24578;48.264;11.436;2023-02-12T04:05:59;98019.09;;;2.65;100.00
13604;BME280;24578;48.264;11.436;2023-02-12T04:09:06;98024.16;;;2.68;100.00
13604;BME280;24578;48.264;11.436;2023-02-12T04:12:19;98034.34;;;2.70;100.00
13604;BME280;24578;48.264;11.436;2023-02-12T04:15:41;98033.59;;;2.65;100.00
13604;BME280;24578;48.264;11.436;2023-02-12T04:18:45;98030.13;;;2.66;100.00
13604;BME280;24578;48.264;11.436;2023-02-12T04:25:17;98032.00;;;2.53;100.00
13604;BME280;24578;48.264;11.436;2023-02-12T04:31:59;98033.59;;;2.63;100.00
13604;BME280;24578;48.264;11.436;2023-02-12T04:35:26;98036.19;;;2.62;100.00
13604;BME280;24578;48.264;11.436;2023-02-12T04:38:40;98042.22;;;2.56;100.00
13604;BME280;24578;48.264;11.436;2023-02-12T04:41:43;98047.31;;;2.56;100.00
13604;BME280;24578;48.264;11.436;2023-02-12T04:44:44;98045.50;;;2.64;100.00
13604;BME280;24578;48.264;11.436;2023-02-12T04:47:46;98042.00;;;2.73;100.00
13604;BME280;24578;48.264;11.436;2023-02-12T04:50:47;98050.56;;;2.70;100.00
13604;BME280;24578;48.264;11.436;2023-02-12T04:53:47;98055.69;;;2.69;100.00
13604;BME280;24578;48.264;11.436;2023-02-12T04:56:48;98052.28;;;2.68;100.00
13604;BME280;24578;48.264;11.436;2023-02-12T04:59:49;98051.50;;;2.63;100.00
13604;BME280;24578;48.264;11.436;2023-02-12T05:02:50;98053.16;;;2.66;100.00
13604;BME280;24578;48.264;11.436;2023-02-12T05:05:50;98053.97;;;2.72;100.00
13604;BME280;24578;48.264;11.436;2023-02-12T05:08:54;98049.66;;;2.76;100.00
13604;BME280;24578;48.264;11.436;2023-02-12T05:11:54;98047.91;;;2.78;100.00
13604;BME280;24578;48.264;11.436;2023-02-12T05:14:54;98052.19;;;2.74;100.00
13604;BME280;24578;48.264;11.436;2023-02-12T05:17:56;98054.75;;;2.76;100.00
13604;BME280;24578;48.264;11.436;2023-02-12T05:20:57;98059.97;;;2.68;100.00
13604;BME280;24578;48.264;11.436;2023-02-12T05:24:00;98055.78;;;2.61;100.00
13604;BME280;24578;48.264;11.436;2023-02-12T05:27:02;98058.34;;;2.58;100.00
13604;BME280;24578;48.264;11.436;2023-02-12T05:30:04;98076.25;;;2.59;100.00
13604;BME280;24578;48.264;11.436;2023-02-12T05:33:05;98081.31;;;2.64;100.00
13604;BME280;24578;48.264;11.436;2023-02-12T05:36:12;98077.94;;;2.61;100.00
13604;BME280;24578;48.264;11.436;2023-02-12T05:39:13;98077.22;;;2.48;100.00
13604;BME280;24578;48.264;11.436;2023-02-12T05:42:13;98084.00;;;2.50;100.00
13604;BME280;24578;48.264;11.436;2023-02-12T05:45:14;98078.03;;;2.51;100.00
13604;BME280;24578;48.264;11.436;2023-02-12T05:48:14;98078.91;;;2.49;100.00
13604;BME280;24578;48.264;11.436;2023-02-12T05:51:18;98080.72;;;2.40;100.00
13604;BME280;24578;48.264;11.436;2023-02-12T05:54:20;98071.34;;;2.38;100.00
13604;BME280;24578;48.264;11.436;2023-02-12T05:57:21;98077.31;;;2.37;100.00
13604;BME280;24578;48.264;11.436;2023-02-12T06:00:22;98082.44;;;2.38;100.00
13604;BME280;24578;48.264;11.436;2023-02-12T06:03:22;98076.50;;;2.35;100.00
13604;BME280;24578;48.264;11.436;2023-02-12T06:06:25;98073.16;;;2.28;100.00
13604;BME280;24578;48.264;11.436;2023-02-12T06:09:26;98080.03;;;2.23;100.00
13604;BME280;24578;48.264;11.436;2023-02-12T06:12:27;98086.00;;;2.20;100.00
13604;BME280;24578;48.264;11.436;2023-02-12T06:15:27;98080.91;;;2.19;100.00
13604;BME280;24578;48.264;11.436;2023-02-12T06:18:29;98086.97;;;2.08;100.00
13604;BME280;24578;48.264;11.436;2023-02-12T06:21:31;98085.22;;;2.10;100.00
13604;BME280;24578;48.264;11.436;2023-02-12T06:24:31;98087.75;;;2.15;100.00
13604;BME280;24578;48.264;11.436;2023-02-12T06:27:32;98087.81;;;2.06;100.00
13604;BME280;24578;48.264;11.436;2023-02-12T06:30:33;98096.28;;;2.12;100.00
13604;BME280;24578;48.264;11.436;2023-02-12T06:33:34;98095.44;;;2.12;100.00
13604;BME280;24578;48.264;11.436;2023-02-12T06:36:40;98097.97;;;2.15;100.00
13604;BME280;24578;48.264;11.436;2023-02-12T06:39:41;98092.09;;;2.05;100.00
13604;BME280;24578;48.264;11.436;2023-02-12T06:42:41;98093.78;;;2.06;100.00
13604;BME280;24578;48.264;11.436;2023-02-12T06:45:42;98095.56;;;1.98;100.00
13604;BME280;24578;48.264;11.436;2023-02-12T06:48:42;98099.81;;;1.96;100.00
13604;BME280;24578;48.264;11.436;2023-02-12T06:51:43;98108.34;;;1.96;100.00
13604;BME280;24578;48.264;11.436;2023-02-12T06:54:43;98102.34;;;2.02;100.00
13604;BME280;24578;48.264;11.436;2023-02-12T06:57:44;98109.03;;;2.16;100.00
13604;BME280;24578;48.264;11.436;2023-02-12T07:00:44;98107.31;;;2.18;100.00
13604;BME280;24578;48.264;11.436;2023-02-12T07:03:51;98108.22;;;2.10;100.00
13604;BME280;24578;48.264;11.436;2023-02-12T07:06:52;98104.84;;;2.10;100.00
13604;BME280;24578;48.264;11.436;2023-02-12T07:09:53;98114.16;;;2.12;100.00
13604;BME280;24578;48.264;11.436;2023-02-12T07:12:53;98113.22;;;2.24;100.00
13604;BME280;24578;48.264;11.436;2023-02-12T07:15:54;98105.47;;;2.35;100.00
13604;BME280;24578;48.264;11.436;2023-02-12T07:18:54;98107.13;;;2.38;100.00
13604;BME280;24578;48.264;11.436;2023-02-12T07:21:56;98107.88;;;2.49;100.00
13604;BME280;24578;48.264;11.436;2023-02-12T07:24:56;98101.78;;;2.61;100.00
13604;BME280;24578;48.264;11.436;2023-02-12T07:27:57;98093.19;;;2.71;100.00
13604;BME280;24578;48.264;11.436;2023-02-12T07:30:58;98097.41;;;2.74;100.00
13604;BME280;24578;48.264;11.436;2023-02-12T07:33:59;98098.25;;;2.74;100.00
13604;BME280;24578;48.264;11.436;2023-02-12T07:37:00;98094.81;;;2.77;100.00
13604;BME280;24578;48.264;11.436;2023-02-12T07:40:00;98092.16;;;2.88;100.00
13604;BME280;24578;48.264;11.436;2023-02-12T07:43:01;98098.16;;;2.84;100.00
13604;BME280;24578;48.264;11.436;2023-02-12T07:46:19;98102.41;;;2.83;100.00
13604;BME280;24578;48.264;11.436;2023-02-12T07:49:21;98101.47;;;2.89;100.00
13604;BME280;24578;48.264;11.436;2023-02-12T07:52:21;98090.16;;;3.09;100.00
13604;BME280;24578;48.264;11.436;2023-02-12T07:55:22;98095.16;;;3.19;100.00
13604;BME280;24578;48.264;11.436;2023-02-12T07:58:22;98097.63;;;3.27;100.00
13604;BME280;24578;48.264;11.436;2023-02-12T08:01:29;98086.75;;;3.11;100.00
13604;BME280;24578;48.264;11.436;2023-02-12T08:04:29;98099.31;;;3.28;100.00
13604;BME280;24578;48.264;11.436;2023-02-12T08:07:30;98109.41;;;3.38;100.00
13604;BME280;24578;48.264;11.436;2023-02-12T08:10:30;98104.09;;;3.55;100.00
13604;BME280;24578;48.264;11.436;2023-02-12T08:13:31;98101.31;;;3.69;100.00
13604;BME280;24578;48.264;11.436;2023-02-12T08:16:36;98107.06;;;3.83;100.00
13604;BME280;24578;48.264;11.436;2023-02-12T08:19:37;98094.91;;;3.96;100.00
13604;BME280;24578;48.264;11.436;2023-02-12T08:22:38;98094.06;;;3.97;100.00
13604;BME280;24578;48.264;11.436;2023-02-12T08:25:38;98099.97;;;4.01;100.00
13604;BME280;24578;48.264;11.436;2023-02-12T08:28:48;98100.44;;;4.24;100.00
13604;BME280;24578;48.264;11.436;2023-02-12T08:31:54;98101.00;;;4.42;100.00
13604;BME280;24578;48.264;11.436;2023-02-12T08:34:55;98098.84;;;4.66;100.00
13604;BME280;24578;48.264;11.436;2023-02-12T08:37:58;98100.00;;;4.49;100.00
13604;BME280;24578;48.264;11.436;2023-02-12T08:41:03;98098.16;;;4.57;100.00
13604;BME280;24578;48.264;11.436;2023-02-12T08:44:04;98089.38;;;4.69;100.00
13604;BME280;24578;48.264;11.436;2023-02-12T08:47:05;98101.31;;;4.72;100.00
13604;BME280;24578;48.264;11.436;2023-02-12T08:50:06;98103.94;;;4.69;100.00
13604;BME280;24578;48.264;11.436;2023-02-12T08:53:07;98100.47;;;4.71;100.00
13604;BME280;24578;48.264;11.436;2023-02-12T08:56:09;98103.94;;;4.69;100.00
13604;BME280;24578;48.264;11.436;2023-02-12T08:59:11;98106.41;;;4.73;100.00
13604;BME280;24578;48.264;11.436;2023-02-12T09:02:12;98100.84;;;4.97;100.00
13604;BME280;24578;48.264;11.436;2023-02-12T09:05:12;98110.19;;;4.99;100.00
13604;BME280;24578;48.264;11.436;2023-02-12T09:08:13;98106.69;;;5.03;100.00
13604;BME280;24578;48.264;11.436;2023-02-12T09:11:23;98106.00;;;4.95;100.00
13604;BME280;24578;48.264;11.436;2023-02-12T09:14:29;98104.97;;;5.04;100.00
13604;BME280;24578;48.264;11.436;2023-02-12T09:17:30;98102.25;;;5.12;100.00
13604;BME280;24578;48.264;11.436;2023-02-12T09:20:31;98096.88;;;5.23;100.00
13604;BME280;24578;48.264;11.436;2023-02-12T09:23:32;98106.03;;;5.36;100.00
13604;BME280;24578;48.264;11.436;2023-02-12T09:26:32;98096.03;;;5.61;100.00
13604;BME280;24578;48.264;11.436;2023-02-12T09:29:33;98101.19;;;5.99;100.00
13604;BME280;24578;48.264;11.436;2023-02-12T09:32:34;98092.56;;;6.38;100.00
13604;BME280;24578;48.264;11.436;2023-02-12T09:35:35;98100.09;;;6.77;100.00
13604;BME280;24578;48.264;11.436;2023-02-12T09:38:37;98097.16;;;6.91;100.00
13604;BME280;24578;48.264;11.436;2023-02-12T09:45:15;98095.84;;;7.38;100.00
13604;BME280;24578;48.264;11.436;2023-02-12T09:49:07;98097.91;;;7.55;100.00
13604;BME280;24578;48.264;11.436;2023-02-12T09:52:16;98094.31;;;7.87;100.00
13604;BME280;24578;48.264;11.436;2023-02-12T09:55:18;98101.78;;;7.97;100.00
13604;BME280;24578;48.264;11.436;2023-02-12T09:58:43;98097.00;;;8.11;100.00
13604;BME280;24578;48.264;11.436;2023-02-12T10:01:45;98096.09;;;8.39;100.00
13604;BME280;24578;48.264;11.436;2023-02-12T10:04:47;98101.88;;;8.46;100.00
13604;BME280;24578;48.264;11.436;2023-02-12T10:22:34;98096.72;;;8.46;100.00
13604;BME280;24578;48.264;11.436;2023-02-12T10:28:43;98098.88;;;9.09;100.00
13604;BME280;24578;48.264;11.436;2023-02-12T10:31:49;98087.50;;;9.37;100.00
13604;BME280;24578;48.264;11.436;2023-02-12T10:34:52;98094.75;;;9.51;100.00
13604;BME280;24578;48.264;11.436;2023-02-12T10:40:56;98084.94;;;10.03;100.00
13604;BME280;24578;48.264;11.436;2023-02-12T10:44:01;98089.78;;;10.32;100.00
13604;BME280;24578;48.264;11.436;2023-02-12T10:47:01;98095.34;;;10.45;100.00
13604;BME280;24578;48.264;11.436;2023-02-12T10:50:06;98092.34;;;10.54;100.00
13604;BME280;24578;48.264;11.436;2023-02-12T10:53:22;98093.81;;;11.01;100.00
13604;BME280;24578;48.264;11.436;2023-02-12T10:56:24;98091.81;;;11.64;98.10
13604;BME280;24578;48.264;11.436;2023-02-12T10:59:25;98073.00;;;12.49;95.23
13604;BME280;24578;48.264;11.436;2023-02-12T11:02:32;98078.06;;;13.02;90.95
13604;BME280;24578;48.264;11.436;2023-02-12T11:05:34;98076.78;;;13.75;83.90
13604;BME280;24578;48.264;11.436;2023-02-12T11:08:36;98068.31;;;14.63;75.44
13604;BME280;24578;48.264;11.436;2023-02-12T11:11:38;98065.09;;;15.17;67.94
13604;BME280;24578;48.264;11.436;2023-02-12T11:14:38;98059.94;;;15.58;64.59
13604;BME280;24578;48.264;11.436;2023-02-12T11:17:44;98049.06;;;15.78;62.06
13604;BME280;24578;48.264;11.436;2023-02-12T11:20:52;98044.88;;;16.03;56.70
13604;BME280;24578;48.264;11.436;2023-02-12T11:23:53;98031.78;;;16.31;54.53
13604;BME280;24578;48.264;11.436;2023-02-12T11:30:20;98030.28;;;16.91;51.41
13604;BME280;24578;48.264;11.436;2023-02-12T11:36:27;98037.78;;;17.22;49.96
13604;BME280;24578;48.264;11.436;2023-02-12T11:39:36;98031.56;;;16.98;50.00
13604;BME280;24578;48.264;11.436;2023-02-12T11:42:38;98030.38;;;17.40;49.36
13604;BME280;24578;48.264;11.436;2023-02-12T11:45:48;98034.47;;;16.94;49.40
13604;BME280;24578;48.264;11.436;2023-02-12T11:48:54;98036.47;;;16.25;51.80
13604;BME280;24578;48.264;11.436;2023-02-12T11:51:59;98033.13;;;16.36;52.33
13604;BME280;24578;48.264;11.436;2023-02-12T11:55:17;98028.28;;;17.08;49.36
13604;BME280;24578;48.264;11.436;2023-02-12T11:58:22;98028.53;;;17.04;48.99
13604;BME280;24578;48.264;11.436;2023-02-12T12:01:29;98019.19;;;16.87;49.32
13604;BME280;24578;48.264;11.436;2023-02-12T12:04:33;98033.00;;;15.30;52.19
13604;BME280;24578;48.264;11.436;2023-02-12T12:07:40;98029.50;;;14.73;55.80
13604;BME280;24578;48.264;11.436;2023-02-12T12:10:57;98027.25;;;14.38;56.49
13604;BME280;24578;48.264;11.436;2023-02-12T12:17:15;98027.41;;;12.77;62.67
13604;BME280;24578;48.264;11.436;2023-02-12T12:20:51;98025.16;;;12.54;66.10
13604;BME280;24578;48.264;11.436;2023-02-12T12:24:02;98026.13;;;12.17;70.03
13604;BME280;24578;48.264;11.436;2023-02-12T12:27:20;98031.97;;;11.86;72.25
13604;BME280;24578;48.264;11.436;2023-02-12T12:31:01;98028.81;;;11.98;73.17
13604;BME280;24578;48.264;11.436;2023-02-12T12:34:07;98034.56;;;11.86;73.32
13604;BME280;24578;48.264;11.436;2023-02-12T12:37:31;98036.66;;;11.23;75.84
13604;BME280;24578;48.264;11.436;2023-02-12T12:40:52;98030.63;;;10.85;79.58
13604;BME280;24578;48.264;11.436;2023-02-12T13:07:49;98002.47;;;13.07;68.91
13604;BME280;24578;48.264;11.436;2023-02-12T13:11:23;97996.47;;;13.99;64.33
13604;BME280;24578;48.264;11.436;2023-02-12T13:17:53;98003.63;;;13.01;65.87
13604;BME280;24578;48.264;11.436;2023-02-12T13:21:03;98004.50;;;12.34;67.82
13604;BME280;24578;48.264;11.436;2023-02-12T13:27:39;98007.59;;;11.17;73.50
13604;BME280;24578;48.264;11.436;2023-02-12T13:30:51;98009.88;;;11.23;74.39
13604;BME280;24578;48.264;11.436;2023-02-12T13:34:03;98007.09;;;11.27;73.78
13604;BME280;24578;48.264;11.436;2023-02-12T13:37:15;98000.44;;;10.84;75.65
13604;BME280;24578;48.264;11.436;2023-02-12T13:40:23;98004.66;;;10.26;78.55
13604;BME280;24578;48.264;11.436;2023-02-12T13:47:46;98001.81;;;10.11;81.42
13604;BME280;24578;48.264;11.436;2023-02-12T13:51:14;98004.44;;;10.51;76.60
13604;BME280;24578;48.264;11.436;2023-02-12T13:57:29;98001.03;;;10.70;75.85
13604;BME280;24578;48.264;11.436;2023-02-12T14:00:55;98008.97;;;10.66;72.78
13604;BME280;24578;48.264;11.436;2023-02-12T14:04:33;97999.00;;;10.57;73.70
13604;BME280;24578;48.264;11.436;2023-02-12T14:07:49;97999.44;;;10.67;74.94
13604;BME280;24578;48.264;11.436;2023-02-12T14:11:04;98004.84;;;11.20;72.92
13604;BME280;24578;48.264;11.436;2023-02-12T14:14:06;98003.00;;;11.22;70.63
13604;BME280;24578;48.264;11.436;2023-02-12T14:20:46;97986.78;;;11.72;67.07
13604;BME280;24578;48.264;11.436;2023-02-12T14:23:47;98003.59;;;10.90;67.57
13604;BME280;24578;48.264;11.436;2023-02-12T14:26:50;98004.41;;;10.11;72.34
13604;BME280;24578;48.264;11.436;2023-02-12T14:36:34;97996.13;;;10.03;73.24
13604;BME280;24578;48.264;11.436;2023-02-12T14:39:39;97999.56;;;10.03;74.48
13604;BME280;24578;48.264;11.436;2023-02-12T14:42:41;97999.94;;;10.15;72.17
13604;BME280;24578;48.264;11.436;2023-02-12T14:45:42;97998.13;;;10.17;71.46
13604;BME280;24578;48.264;11.436;2023-02-12T14:48:50;97992.88;;;10.18;71.18
13604;BME280;24578;48.264;11.436;2023-02-12T14:52:02;97991.97;;;9.99;73.08
13604;BME280;24578;48.264;11.436;2023-02-12T14:58:22;98006.63;;;9.78;75.54
13604;BME280;24578;48.264;11.436;2023-02-12T15:01:34;97991.75;;;9.40;79.02
13604;BME280;24578;48.264;11.436;2023-02-12T15:04:37;97990.97;;;9.38;79.10
13604;BME280;24578;48.264;11.436;2023-02-12T15:11:35;97982.72;;;9.50;79.40
13604;BME280;24578;48.264;11.436;2023-02-12T15:14:49;97978.09;;;9.58;78.23
13604;BME280;24578;48.264;11.436;2023-02-12T15:18:05;97981.91;;;9.50;79.55
13604;BME280;24578;48.264;11.436;2023-02-12T15:21:21;97977.63;;;9.49;80.13
13604;BME280;24578;48.264;11.436;2023-02-12T15:24:24;97981.13;;;9.48;79.57
13604;BME280;24578;48.264;11.436;2023-02-12T15:27:25;97975.56;;;9.35;79.20
13604;BME280;24578;48.264;11.436;2023-02-12T15:30:33;97982.88;;;9.03;79.10
13604;BME280;24578;48.264;11.436;2023-02-12T15:33:39;97979.19;;;8.86;78.84
13604;BME280;24578;48.264;11.436;2023-02-12T15:36:45;97978.88;;;8.46;82.69
13604;BME280;24578;48.264;11.436;2023-02-12T15:39:46;97980.25;;;8.06;88.52
13604;BME280;24578;48.264;11.436;2023-02-12T15:42:56;97983.38;;;7.64;93.76
13604;BME280;24578;48.264;11.436;2023-02-12T15:45:56;97982.38;;;7.41;95.36
13604;BME280;24578;48.264;11.436;2023-02-12T15:48:57;97987.00;;;7.31;97.55
13604;BME280;24578;48.264;11.436;2023-02-12T15:52:02;97986.13;;;7.02;100.00
13604;BME280;24578;48.264;11.436;2023-02-12T15:55:05;97981.78;;;6.74;100.00
13604;BME280;24578;48.264;11.436;2023-02-12T15:58:55;97984.50;;;6.69;100.00
13604;BME280;24578;48.264;11.436;2023-02-12T16:02:00;97978.03;;;6.54;100.00
13604;BME280;24578;48.264;11.436;2023-02-12T16:05:04;97976.59;;;6.46;100.00
13604;BME280;24578;48.264;11.436;2023-02-12T16:08:05;97973.66;;;6.28;100.00
13604;BME280;24578;48.264;11.436;2023-02-12T16:11:12;97972.88;;;6.24;100.00
13604;BME280;24578;48.264;11.436;2023-02-12T16:14:26;97976.78;;;6.06;100.00
13604;BME280;24578;48.264;11.436;2023-02-12T16:17:31;97976.94;;;6.00;100.00
13604;BME280;24578;48.264;11.436;2023-02-12T16:20:32;97977.06;;;5.94;100.00
13604;BME280;24578;48.264;11.436;2023-02-12T16:23:34;97974.81;;;5.82;100.00
13604;BME280;24578;48.264;11.436;2023-02-12T16:26:35;97985.56;;;5.63;100.00
13604;BME280;24578;48.264;11.436;2023-02-12T16:29:44;97982.34;;;5.53;100.00
13604;BME280;24578;48.264;11.436;2023-02-12T16:32:45;97987.69;;;5.45;100.00
13604;BME280;24578;48.264;11.436;2023-02-12T16:36:00;97987.91;;;5.36;100.00
13604;BME280;24578;48.264;11.436;2023-02-12T16:39:03;97990.13;;;5.12;100.00
13604;BME280;24578;48.264;11.436;2023-02-12T16:42:14;97997.13;;;5.06;100.00
13604;BME280;24578;48.264;11.436;2023-02-12T16:48:27;97991.34;;;4.97;100.00
13604;BME280;24578;48.264;11.436;2023-02-12T16:51:34;97997.81;;;4.73;100.00
13604;BME280;24578;48.264;11.436;2023-02-12T16:54:35;98006.59;;;4.61;100.00
13604;BME280;24578;48.264;11.436;2023-02-12T16:57:36;98011.03;;;4.53;100.00
13604;BME280;24578;48.264;11.436;2023-02-12T17:00:36;98005.31;;;4.40;100.00
13604;BME280;24578;48.264;11.436;2023-02-12T17:03:38;98016.41;;;4.40;100.00
13604;BME280;24578;48.264;11.436;2023-02-12T17:06:39;98026.84;;;4.31;100.00
13604;BME280;24578;48.264;11.436;2023-02-12T17:09:39;98026.19;;;4.18;100.00
13604;BME280;24578;48.264;11.436;2023-02-12T17:12:51;98027.25;;;4.08;100.00
13604;BME280;24578;48.264;11.436;2023-02-12T17:15:54;98023.09;;;4.02;100.00
13604;BME280;24578;48.264;11.436;2023-02-12T17:18:56;98031.81;;;3.90;100.00
13604;BME280;24578;48.264;11.436;2023-02-12T17:21:57;98031.84;;;3.87;100.00
13604;BME280;24578;48.264;11.436;2023-02-12T17:24:57;98029.47;;;3.76;100.00
13604;BME280;24578;48.264;11.436;2023-02-12T17:27:58;98027.78;;;3.75;100.00
13604;BME280;24578;48.264;11.436;2023-02-12T17:30:59;98039.88;;;3.67;100.00
13604;BME280;24578;48.264;11.436;2023-02-12T17:34:04;98027.16;;;3.61;100.00
13604;BME280;24578;48.264;11.436;2023-02-12T17:37:05;98031.47;;;3.57;100.00
13604;BME280;24578;48.264;11.436;2023-02-12T17:40:06;98031.63;;;3.48;100.00
13604;BME280;24578;48.264;11.436;2023-02-12T17:43:07;98033.47;;;3.38;100.00
13604;BME280;24578;48.264;11.436;2023-02-12T17:46:14;98032.72;;;3.31;100.00
13604;BME280;24578;48.264;11.436;2023-02-12T17:49:16;98033.59;;;3.30;100.00
13604;BME280;24578;48.264;11.436;2023-02-12T17:52:16;98026.91;;;3.18;100.00
13604;BME280;24578;48.264;11.436;2023-02-12T17:55:17;98031.34;;;3.05;100.00
13604;BME280;24578;48.264;11.436;2023-02-12T17:58:17;98018.56;;;3.07;100.00
13604;BME280;24578;48.264;11.436;2023-02-12T18:01:20;98028.03;;;3.00;100.00
13604;BME280;24578;48.264;11.436;2023-02-12T18:04:21;98027.31;;;2.89;100.00
13604;BME280;24578;48.264;11.436;2023-02-12T18:07:22;98028.25;;;2.82;100.00